TAF EHHW
METAR EHHW
EHHW 090655Z AUTO 17016KT 9999 BKN006/// BKN007/// 05/03 Q1000=
EHHW 090625Z AUTO 17018KT 9999 BKN006/// 05/03 Q1000=
EHHW 090555Z AUTO 17017KT 9999 BKN006/// OVC007/// 05/04 Q1000=
EHHW 090525Z AUTO 17015KT 130V200 9999 BKN006/// BKN008/// 05/04 Q1000=
EHHW 090455Z AUTO 17015KT 9999 BKN006/// BKN008/// 06/04 Q0999=
WC EHHW
WS EHHW
WV EHHW